createdAt,value
2018-09-08T00:02:02.063Z,2.52
2018-09-08T00:04:34.759Z,2.30
2018-09-08T00:07:13.101Z,2.35
2018-09-08T00:09:45.880Z,2.33
2018-09-08T00:12:18.594Z,2.17
2018-09-08T00:14:50.759Z,2.10
2018-09-08T00:17:29.019Z,1.70
2018-09-08T00:20:07.305Z,1.57
2018-09-08T00:22:45.770Z,2.17
2018-09-08T00:25:24.364Z,1.47
2018-09-08T00:28:11.690Z,1.70
2018-09-08T00:30:44.516Z,1.00
2018-09-08T00:33:17.323Z,1.30
2018-09-08T00:35:50.551Z,1.35
2018-09-08T00:38:23.297Z,1.30
2018-09-08T00:40:56.268Z,1.57
2018-09-08T00:43:29.028Z,1.90
2018-09-08T00:46:01.861Z,1.80
2018-09-08T00:48:34.620Z,1.83
2018-09-08T00:51:07.320Z,1.37
2018-09-08T00:53:40.013Z,1.30
2018-09-08T00:56:12.813Z,1.47
2018-09-08T00:58:51.168Z,1.73
2018-09-08T01:01:23.944Z,1.70
2018-09-08T01:03:56.750Z,1.70
2018-09-08T01:06:29.706Z,1.53
2018-09-08T01:09:02.926Z,1.40
2018-09-08T01:11:35.820Z,1.70
2018-09-08T01:14:08.577Z,1.37
2018-09-08T01:16:41.312Z,1.40
2018-09-08T01:19:15.455Z,1.10
2018-09-08T01:21:48.217Z,1.50
2018-09-08T01:24:20.925Z,1.83
2018-09-08T01:26:53.789Z,1.30
2018-09-08T01:29:26.608Z,1.50
2018-09-08T01:31:59.582Z,1.53
2018-09-08T01:34:32.314Z,1.43
2018-09-08T01:37:05.108Z,1.70
2018-09-08T01:39:37.982Z,1.33
2018-09-08T01:42:10.977Z,1.90
2018-09-08T01:44:43.671Z,1.60
2018-09-08T01:47:16.475Z,1.30
2018-09-08T01:49:49.173Z,1.50
2018-09-08T01:52:22.396Z,1.87
2018-09-08T01:54:55.169Z,1.40
2018-09-08T01:57:27.923Z,1.80
2018-09-08T02:00:16.789Z,1.63
2018-09-08T02:02:50.409Z,1.70
2018-09-08T02:05:24.283Z,1.70
2018-09-08T02:07:56.970Z,1.40
2018-09-08T02:10:30.503Z,1.70
2018-09-08T02:13:03.483Z,1.57
2018-09-08T02:15:36.294Z,1.80
2018-09-08T02:18:09.053Z,1.60
2018-09-08T02:20:44.797Z,1.40
2018-09-08T02:23:17.625Z,1.53
2018-09-08T02:25:50.401Z,1.40
2018-09-08T02:28:24.277Z,1.70
2018-09-08T02:30:57.661Z,1.47
2018-09-08T02:33:30.547Z,1.67
2018-09-08T02:36:03.318Z,1.40
2018-09-08T02:38:36.369Z,1.17
2018-09-08T02:43:53.313Z,1.77
2018-09-08T03:00:12.488Z,1.27
2018-09-08T03:02:44.124Z,1.10
2018-09-08T03:05:15.754Z,1.30
2018-09-08T03:07:47.633Z,1.60
2018-09-08T03:10:19.928Z,1.20
2018-09-08T03:12:51.506Z,1.60
2018-09-08T03:15:23.076Z,1.27
2018-09-08T03:17:54.645Z,1.17
2018-09-08T03:20:26.198Z,1.30
2018-09-08T03:22:57.757Z,1.50
2018-09-08T03:25:30.231Z,1.80
2018-09-08T03:28:02.689Z,1.37
2018-09-08T03:30:35.090Z,1.47
2018-09-08T03:33:07.545Z,1.67
2018-09-08T03:35:39.900Z,1.60
2018-09-08T03:38:12.241Z,1.23
2018-09-08T03:40:44.648Z,1.37
2018-09-08T03:43:17.016Z,1.40
2018-09-08T03:45:50.111Z,1.40
2018-09-08T03:48:22.605Z,1.60
2018-09-08T03:50:55.005Z,1.40
2018-09-08T03:53:27.485Z,1.77
2018-09-08T03:55:59.983Z,1.20
2018-09-08T03:58:32.395Z,1.40
2018-09-08T04:01:04.816Z,1.70
2018-09-08T04:03:38.389Z,1.63
2018-09-08T04:06:12.087Z,1.30
2018-09-08T04:08:45.726Z,1.40
2018-09-08T04:11:20.295Z,1.70
2018-09-08T04:13:53.949Z,1.60
2018-09-08T04:16:27.425Z,1.40
2018-09-08T04:19:01.590Z,1.70
2018-09-08T04:21:35.186Z,1.23
2018-09-08T04:24:08.834Z,1.93
2018-09-08T04:26:42.547Z,1.80
2018-09-08T04:29:15.997Z,1.30
2018-09-08T04:31:49.639Z,1.20
2018-09-08T04:34:23.196Z,1.77
2018-09-08T04:36:56.739Z,1.43
2018-09-08T04:39:30.322Z,1.50
2018-09-08T04:42:04.161Z,1.97
2018-09-08T04:44:37.762Z,1.90
2018-09-08T04:47:11.328Z,1.30
2018-09-08T04:49:44.905Z,1.60
2018-09-08T04:52:18.923Z,1.80
2018-09-08T04:54:52.562Z,1.80
2018-09-08T04:57:26.242Z,2.67
2018-09-08T04:59:59.865Z,1.60
2018-09-08T05:02:33.729Z,1.50
2018-09-08T05:05:07.499Z,1.60
2018-09-08T05:07:41.235Z,1.43
2018-09-08T05:10:14.950Z,1.40
2018-09-08T05:12:48.672Z,1.50
2018-09-08T05:15:22.403Z,1.27
2018-09-08T05:17:56.122Z,2.60
2018-09-08T05:20:30.435Z,1.53
2018-09-08T05:23:04.457Z,1.50
2018-09-08T05:25:38.092Z,1.70
2018-09-08T05:28:11.732Z,1.70
2018-09-08T05:30:45.369Z,1.70
2018-09-08T05:33:19.030Z,1.60
2018-09-08T05:35:52.754Z,1.30
2018-09-08T05:38:26.455Z,1.10
2018-09-08T05:41:00.129Z,1.73
2018-09-08T05:43:33.759Z,1.50
2018-09-08T05:46:07.325Z,1.80
2018-09-08T05:48:40.956Z,1.53
2018-09-08T05:51:14.864Z,1.20
2018-09-08T05:53:48.627Z,1.40
2018-09-08T05:56:22.503Z,2.20
2018-09-08T05:58:56.149Z,1.37
2018-09-08T06:01:29.838Z,1.40
2018-09-08T06:04:03.480Z,1.40
2018-09-08T06:06:37.198Z,1.73
2018-09-08T06:09:11.272Z,1.40
2018-09-08T06:11:45.315Z,1.30
2018-09-08T06:14:19.011Z,1.37
2018-09-08T06:16:52.863Z,1.30
2018-09-08T06:19:26.573Z,1.50
2018-09-08T06:22:01.512Z,1.33
2018-09-08T06:24:35.346Z,1.43
2018-09-08T06:27:10.102Z,1.33
2018-09-08T06:29:43.859Z,1.30
2018-09-08T06:32:18.787Z,1.40
2018-09-08T06:34:52.721Z,1.33
2018-09-08T06:37:29.147Z,1.40
2018-09-08T06:40:03.545Z,1.07
2018-09-08T06:42:37.152Z,1.20
2018-09-08T06:45:11.082Z,1.27
2018-09-08T06:47:46.031Z,1.40
2018-09-08T06:50:19.973Z,1.30
2018-09-08T06:52:54.252Z,1.20
2018-09-08T06:55:28.143Z,1.30
2018-09-08T06:58:02.253Z,1.67
2018-09-08T07:00:36.278Z,1.23
2018-09-08T07:03:10.037Z,1.32
2018-09-08T07:05:43.707Z,1.20
2018-09-08T07:08:18.136Z,1.30
2018-09-08T07:10:52.054Z,1.33
2018-09-08T07:13:27.396Z,1.17
2018-09-08T07:16:01.407Z,1.30
2018-09-08T07:18:35.265Z,1.10
2018-09-08T07:21:09.088Z,1.30
2018-09-08T07:23:43.034Z,1.47
2018-09-08T07:26:16.857Z,1.10
2018-09-08T07:28:51.102Z,1.20
2018-09-08T07:31:24.723Z,1.20
2018-09-08T07:33:58.999Z,1.20
2018-09-08T07:36:33.269Z,1.00
2018-09-08T07:39:08.621Z,1.17
2018-09-08T07:41:42.895Z,1.30
2018-09-08T07:44:17.188Z,1.15
2018-09-08T07:46:51.479Z,1.50
2018-09-08T07:49:31.155Z,1.20
2018-09-08T07:52:05.650Z,1.32
2018-09-08T07:54:40.165Z,1.37
2018-09-08T07:57:14.397Z,1.07
2018-09-08T07:59:48.965Z,1.32
2018-09-08T08:02:23.424Z,1.10
2018-09-08T08:04:57.812Z,1.72
2018-09-08T08:07:31.973Z,2.30
2018-09-08T08:10:06.294Z,0.90
2018-09-08T08:12:40.609Z,1.25
2018-09-08T08:15:14.813Z,1.85
2018-09-08T08:17:48.988Z,1.40
2018-09-08T08:20:23.589Z,1.27
2018-09-08T08:22:57.925Z,1.47
2018-09-08T08:25:32.241Z,1.15
2018-09-08T08:28:06.605Z,1.10
2018-09-08T08:30:40.628Z,1.12
2018-09-08T08:33:15.107Z,1.30
2018-09-08T08:35:49.295Z,1.30
2018-09-08T08:38:23.670Z,1.40
2018-09-08T08:40:57.907Z,0.95
2018-09-08T08:43:32.412Z,1.30
2018-09-08T08:46:06.886Z,1.35
2018-09-08T08:48:41.303Z,1.30
2018-09-08T08:51:26.658Z,1.60
2018-09-08T08:54:11.367Z,1.70
2018-09-08T08:56:45.532Z,1.30
2018-09-08T08:59:19.118Z,1.40
2018-09-08T09:01:52.790Z,1.60
2018-09-08T09:04:26.505Z,1.67
2018-09-08T09:07:00.240Z,1.80
2018-09-08T09:09:33.958Z,1.50
2018-09-08T09:12:07.668Z,1.60
2018-09-08T09:14:41.413Z,1.87
2018-09-08T09:17:15.365Z,1.50
2018-09-08T09:20:00.249Z,1.57
2018-09-08T09:22:45.177Z,1.50
2018-09-08T09:25:19.230Z,1.20
2018-09-08T09:27:53.135Z,1.10
2018-09-08T09:30:26.799Z,1.42
2018-09-08T09:33:00.640Z,0.97
2018-09-08T09:35:34.764Z,1.50
2018-09-08T09:38:08.887Z,1.17
2018-09-08T09:40:43.012Z,1.40
2018-09-08T09:43:17.367Z,1.30
2018-09-08T09:45:51.678Z,1.35
2018-09-08T09:48:25.924Z,1.20
2018-09-08T09:51:00.201Z,1.37
2018-09-08T09:53:34.309Z,1.50
2018-09-08T09:56:08.421Z,1.20
2018-09-08T09:58:42.508Z,1.22
2018-09-08T10:01:20.889Z,0.93
2018-09-08T10:03:55.019Z,1.17
2018-09-08T10:06:29.228Z,1.32
2018-09-08T10:09:04.620Z,0.95
2018-09-08T10:11:39.120Z,1.30
2018-09-08T10:14:13.247Z,1.10
2018-09-08T10:16:47.362Z,1.20
2018-09-08T10:19:22.423Z,0.93
2018-09-08T10:21:56.477Z,1.02
2018-09-08T10:24:30.643Z,1.20
2018-09-08T10:27:04.893Z,1.10
2018-09-08T10:29:39.010Z,1.10
2018-09-08T10:32:13.490Z,1.00
2018-09-08T10:34:47.273Z,1.07
2018-09-08T10:37:21.809Z,1.10
2018-09-08T10:39:55.902Z,1.30
2018-09-08T10:42:29.999Z,1.50
2018-09-08T10:45:04.512Z,1.40
2018-09-08T10:47:38.772Z,1.37
2018-09-08T10:50:12.984Z,1.10
2018-09-08T10:52:47.994Z,1.10
2018-09-08T10:55:22.562Z,1.30
2018-09-08T10:57:56.684Z,1.62
2018-09-08T11:00:30.788Z,1.27
2018-09-08T11:03:04.846Z,1.10
2018-09-08T11:05:38.899Z,1.45
2018-09-08T11:08:13.023Z,1.25
2018-09-08T11:10:47.211Z,1.20
2018-09-08T11:13:21.709Z,1.10
2018-09-08T11:15:55.952Z,1.10
2018-09-08T11:18:30.221Z,1.02
2018-09-08T11:21:05.493Z,1.35
2018-09-08T11:23:39.650Z,1.80
2018-09-08T11:26:13.891Z,1.22
2018-09-08T11:28:48.018Z,1.27
2018-09-08T11:31:22.654Z,1.30
2018-09-08T11:33:56.794Z,1.30
2018-09-08T11:36:31.059Z,1.30
2018-09-08T11:39:06.237Z,1.40
2018-09-08T11:41:40.915Z,1.60
2018-09-08T11:44:15.398Z,1.72
2018-09-08T11:46:49.553Z,1.45
2018-09-08T11:49:23.716Z,1.35
2018-09-08T11:51:58.093Z,1.20
2018-09-08T11:54:32.330Z,1.65
2018-09-08T11:57:07.019Z,1.10
2018-09-08T11:59:41.328Z,1.52
2018-09-08T12:02:15.610Z,1.70
2018-09-08T12:04:50.456Z,1.60
2018-09-08T12:07:24.705Z,1.30
2018-09-08T12:09:59.255Z,1.00
2018-09-08T12:12:33.870Z,1.20
2018-09-08T12:15:08.078Z,1.22
2018-09-08T12:17:42.332Z,1.10
2018-09-08T12:20:16.515Z,1.35
2018-09-08T12:22:51.378Z,1.17
2018-09-08T12:25:25.708Z,1.47
2018-09-08T12:27:59.458Z,1.77
2018-09-08T12:30:33.189Z,1.20
2018-09-08T12:33:07.055Z,1.33
2018-09-08T12:35:40.895Z,1.47
2018-09-08T12:38:14.637Z,3.13
2018-09-08T12:40:48.414Z,1.63
2018-09-08T12:43:22.211Z,1.70
2018-09-08T12:45:55.811Z,1.67
2018-09-08T12:48:29.490Z,1.80
2018-09-08T12:51:03.359Z,1.57
2018-09-08T12:53:36.887Z,1.50
2018-09-08T12:56:10.586Z,2.10
2018-09-08T12:58:44.425Z,1.33
2018-09-08T13:01:17.906Z,2.00
2018-09-08T13:03:51.576Z,2.27
2018-09-08T13:06:25.112Z,1.63
2018-09-08T13:08:58.616Z,2.20
2018-09-08T13:11:32.144Z,1.90
2018-09-08T13:14:05.752Z,2.00
2018-09-08T13:16:39.380Z,1.97
2018-09-08T13:19:12.925Z,1.87
2018-09-08T13:21:46.463Z,1.70
2018-09-08T13:24:19.995Z,1.70
2018-09-08T13:26:53.490Z,3.07
2018-09-08T13:29:27.142Z,1.80
2018-09-08T13:32:00.829Z,1.80
2018-09-08T13:34:34.462Z,1.90
2018-09-08T13:37:15.174Z,3.10
2018-09-08T13:39:56.837Z,2.00
2018-09-08T13:42:31.175Z,1.85
2018-09-08T13:45:21.159Z,2.15
2018-09-08T13:47:55.250Z,1.37
2018-09-08T13:50:29.645Z,1.50
2018-09-08T13:53:04.019Z,1.22
2018-09-08T13:55:38.134Z,1.00
2018-09-08T13:58:12.215Z,1.20
2018-09-08T14:00:46.300Z,1.30
2018-09-08T14:03:20.717Z,1.27
2018-09-08T14:05:54.832Z,1.85
2018-09-08T14:08:28.899Z,1.95
2018-09-08T14:11:03.364Z,1.12
2018-09-08T14:13:37.451Z,1.10
2018-09-08T14:16:11.570Z,1.20
2018-09-08T14:18:45.716Z,1.10
2018-09-08T14:21:20.103Z,1.02
2018-09-08T14:23:54.258Z,1.40
2018-09-08T14:26:28.367Z,1.40
2018-09-08T14:29:02.621Z,1.35
2018-09-08T14:31:36.673Z,1.45
2018-09-08T14:34:10.720Z,1.62
2018-09-08T14:36:44.824Z,1.60
2018-09-08T14:39:19.080Z,1.60
2018-09-08T14:41:53.187Z,1.37
2018-09-08T14:44:27.241Z,1.10
2018-09-08T14:47:01.354Z,1.47
2018-09-08T14:49:35.478Z,1.30
2018-09-08T14:52:09.566Z,1.65
2018-09-08T14:54:43.681Z,1.45
2018-09-08T14:57:17.789Z,1.72
2018-09-08T14:59:51.922Z,1.65
2018-09-08T15:02:26.037Z,1.82
2018-09-08T15:05:00.149Z,1.87
2018-09-08T15:07:34.825Z,2.37
2018-09-08T15:10:09.263Z,1.75
2018-09-08T15:12:43.484Z,1.40
2018-09-08T15:15:17.976Z,1.92
2018-09-08T15:17:52.351Z,1.50
2018-09-08T15:20:26.444Z,1.95
2018-09-08T15:23:00.554Z,1.47
2018-09-08T15:25:34.624Z,1.57
2018-09-08T15:28:08.748Z,2.10
2018-09-08T15:30:42.825Z,1.95
2018-09-08T15:33:16.899Z,2.42
2018-09-08T15:35:51.091Z,1.82
2018-09-08T15:38:25.264Z,1.25
2018-09-08T15:40:59.357Z,1.20
2018-09-08T15:43:33.528Z,1.70
2018-09-08T15:46:07.702Z,2.25
2018-09-08T15:48:42.046Z,1.65
2018-09-08T15:51:16.106Z,1.60
2018-09-08T15:53:50.281Z,1.70
2018-09-08T15:56:24.408Z,1.30
2018-09-08T15:58:58.520Z,1.80
2018-09-08T16:01:32.641Z,2.05
2018-09-08T16:04:06.912Z,1.77
2018-09-08T16:06:40.992Z,1.82
2018-09-08T16:09:15.057Z,1.72
2018-09-08T16:11:49.129Z,1.82
2018-09-08T16:14:23.346Z,1.80
2018-09-08T16:16:57.582Z,2.00
2018-09-08T16:19:31.915Z,1.70
2018-09-08T16:22:07.056Z,1.40
2018-09-08T16:24:41.119Z,2.02
2018-09-08T16:28:34.126Z,2.77
2018-09-08T16:31:06.773Z,3.15
2018-09-08T16:33:39.470Z,3.12
2018-09-08T16:36:12.232Z,2.72
2018-09-08T16:38:44.935Z,2.92
2018-09-08T16:41:19.046Z,2.80
2018-09-08T16:43:51.807Z,2.90
2018-09-08T16:46:24.697Z,2.98
2018-09-08T16:48:57.454Z,3.80
2018-09-08T16:51:30.144Z,2.50
2018-09-08T16:54:03.529Z,2.67
2018-09-08T16:56:36.192Z,3.22
2018-09-08T16:59:08.947Z,2.47
2018-09-08T17:01:42.142Z,2.20
2018-09-08T17:04:15.490Z,2.33
2018-09-08T17:06:53.444Z,3.12
2018-09-08T17:16:31.501Z,3.27
2018-09-08T17:19:04.698Z,3.15
2018-09-08T17:21:38.911Z,2.77
2018-09-08T17:24:11.641Z,2.85
2018-09-08T17:26:44.505Z,2.52
2018-09-08T17:29:17.259Z,3.25
2018-09-08T17:31:50.092Z,3.12
2018-09-08T17:34:23.444Z,2.83
2018-09-08T17:49:58.759Z,2.47
2018-09-08T17:52:39.798Z,3.22
2018-09-08T17:55:17.402Z,2.65
2018-09-08T17:57:52.072Z,2.27
2018-09-08T18:00:26.614Z,2.20
2018-09-08T18:03:07.317Z,3.10
2018-09-08T18:05:40.129Z,2.65
2018-09-08T18:08:17.952Z,2.80
2018-09-08T18:10:50.736Z,2.87
2018-09-08T18:13:24.421Z,2.00
2018-09-08T18:15:57.236Z,2.12
2018-09-08T18:18:30.143Z,2.37
2018-09-08T18:21:03.631Z,2.35
2018-09-08T18:23:36.574Z,2.37
2018-09-08T18:26:09.536Z,2.37
2018-09-08T18:28:42.551Z,2.90
2018-09-08T18:31:15.580Z,2.72
2018-09-08T18:33:48.395Z,2.37
2018-09-08T18:36:23.325Z,3.02
2018-09-08T18:38:56.442Z,2.42
2018-09-08T18:44:18.176Z,3.37
2018-09-08T18:46:52.871Z,2.70
2018-09-08T18:49:26.788Z,2.83
2018-09-08T18:51:59.770Z,2.67
2018-09-08T18:54:32.580Z,3.40
2018-09-08T18:57:05.218Z,2.35
2018-09-08T18:59:38.008Z,3.17
2018-09-08T19:02:10.914Z,2.62
2018-09-08T19:04:44.790Z,2.17
2018-09-08T19:07:17.733Z,2.75
2018-09-08T19:09:56.205Z,2.10
2018-09-08T19:12:29.093Z,2.52
2018-09-08T19:15:07.604Z,2.80
2018-09-08T19:17:40.435Z,3.55
2018-09-08T19:20:18.945Z,2.98
2018-09-08T19:22:52.071Z,2.30
2018-09-08T19:25:25.096Z,2.87
2018-09-08T19:27:58.694Z,2.02
2018-09-08T19:30:32.789Z,2.45
2018-09-08T19:33:05.784Z,2.62
2018-09-08T19:35:40.536Z,2.30
2018-09-08T19:38:13.453Z,3.00
2018-09-08T19:40:47.329Z,2.45
2018-09-08T19:43:20.923Z,2.25
2018-09-08T19:45:53.824Z,3.10
2018-09-08T19:48:27.302Z,3.02
2018-09-08T19:51:00.350Z,2.65
2018-09-08T19:53:38.908Z,2.65
2018-09-08T19:56:11.687Z,2.92
2018-09-08T19:58:50.028Z,3.52
2018-09-08T20:01:22.827Z,3.50
2018-09-08T20:03:56.860Z,3.17
2018-09-08T20:06:29.641Z,3.35
2018-09-08T20:09:03.687Z,2.98
2018-09-08T20:11:36.660Z,2.62
2018-09-08T20:14:09.505Z,2.70
2018-09-08T20:16:42.347Z,2.95
2018-09-08T20:19:15.332Z,2.70
2018-09-08T20:21:48.153Z,3.55
2018-09-08T20:24:21.075Z,3.35
2018-09-08T20:26:54.200Z,2.70
2018-09-08T20:29:27.047Z,2.25
2018-09-08T20:32:00.841Z,2.50
2018-09-08T20:34:33.914Z,2.17
2018-09-08T20:37:06.601Z,2.08
2018-09-08T20:39:39.422Z,2.40
2018-09-08T20:42:12.296Z,1.85
2018-09-08T20:44:45.246Z,3.23
2018-09-08T20:47:18.668Z,2.52
2018-09-08T20:49:52.861Z,4.07
2018-09-08T20:52:26.457Z,3.13
2018-09-08T20:54:59.751Z,2.83
2018-09-08T20:57:32.735Z,3.00
2018-09-08T21:00:06.446Z,3.47
2018-09-08T21:02:39.705Z,3.13
2018-09-08T21:05:13.716Z,3.83
2018-09-08T21:07:46.518Z,3.43
2018-09-08T21:10:19.846Z,4.27
2018-09-08T21:12:52.605Z,4.97
2018-09-08T21:15:25.542Z,4.57
2018-09-08T21:17:58.569Z,4.13
2018-09-08T21:20:31.439Z,3.50
2018-09-08T21:23:04.571Z,3.77
2018-09-08T21:25:37.317Z,3.57
2018-09-08T21:28:10.377Z,3.10
2018-09-08T21:30:43.137Z,3.50
2018-09-08T21:33:16.218Z,2.97
2018-09-08T21:35:48.996Z,2.97
2018-09-08T21:38:21.745Z,2.73
2018-09-08T21:40:54.714Z,3.30
2018-09-08T21:43:27.820Z,3.17
2018-09-08T21:46:00.575Z,2.83
2018-09-08T21:48:33.564Z,2.87
2018-09-08T21:51:06.484Z,3.00
2018-09-08T21:53:39.653Z,3.07
2018-09-08T21:56:12.422Z,2.93
2018-09-08T21:58:45.417Z,3.77
2018-09-08T22:01:24.958Z,2.57
2018-09-08T22:03:58.018Z,2.90
2018-09-08T22:06:31.529Z,2.97
2018-09-08T22:09:06.944Z,2.77
2018-09-08T22:11:39.769Z,2.43
2018-09-08T22:14:12.620Z,2.27
2018-09-08T22:16:45.488Z,2.20
2018-09-08T22:19:18.457Z,3.47
2018-09-08T22:21:51.328Z,2.70
2018-09-08T22:24:25.114Z,2.60
2018-09-08T22:26:57.896Z,3.37
2018-09-08T22:29:30.624Z,2.53
2018-09-08T22:32:04.630Z,2.57
2018-09-08T22:34:37.464Z,3.07
2018-09-08T22:37:10.680Z,2.10
2018-09-08T22:39:43.552Z,2.60
2018-09-08T22:42:16.861Z,2.77
2018-09-08T22:44:49.797Z,2.20
2018-09-08T22:47:22.823Z,2.80
2018-09-08T22:49:55.846Z,2.50
2018-09-08T22:52:29.226Z,2.80
2018-09-08T22:55:02.674Z,2.60
2018-09-08T22:57:35.500Z,2.93
2018-09-08T23:00:09.271Z,2.50
2018-09-08T23:02:42.037Z,3.80
2018-09-08T23:05:14.906Z,2.70
2018-09-08T23:07:47.731Z,3.17
2018-09-08T23:10:20.514Z,3.00
2018-09-08T23:12:53.648Z,3.17
2018-09-08T23:15:26.844Z,3.20
2018-09-08T23:17:59.712Z,3.40
2018-09-08T23:20:32.810Z,3.80
2018-09-08T23:23:05.576Z,3.63
2018-09-08T23:25:38.403Z,2.70
2018-09-08T23:28:11.282Z,3.57
2018-09-08T23:30:44.248Z,3.30
2018-09-08T23:33:17.135Z,3.40
2018-09-08T23:35:49.914Z,3.00
2018-09-08T23:38:23.180Z,3.50
2018-09-08T23:40:55.947Z,4.00
2018-09-08T23:43:28.728Z,3.20
2018-09-08T23:46:01.552Z,3.10
2018-09-08T23:48:34.434Z,3.57
2018-09-08T23:51:08.192Z,3.60
2018-09-08T23:53:41.128Z,3.53
2018-09-08T23:56:13.958Z,3.03
2018-09-08T23:58:46.867Z,3.00
